Weather at Ovchepoltsi Airstrip [CLOSED]

Public forecast

Using degrees Celsius for public forecast. Weather courtesy of forecast.io.

Closest aviation weather report (METAR) to Ovchepoltsi Airstrip

Closest report is Graf Ignatievo Air Base, 13.2 nm (24.5 km) E.

2024/07/17 12:00 (retrieved 18 minutes ago)

LBPG 171200Z 22004KT 9999 FEW050 39/13 Q1012

Closest aviation forecast (TAF) to Ovchepoltsi Airstrip

Forecast is more than 6 hours old.

Closest forecast is Graf Ignatievo Air Base, 13.2 nm (24.5 km) E.

2024/07/17 06:00 (retrieved 6 hours ago)

TAF LBPG 170500Z 1706/1718 VRB04KT 9999 SKC BECMG 1710/1712 12014KT 9999 SCT050 BY LBSA